sensor_id;sensor_type;location;lat;lon;timestamp;P1;durP1;ratioP1;P2;durP2;ratioP2
28724;SDS011;43472;48.980;9.646;2022-07-24T00:05:00;16.90;;;11.52;;
28724;SDS011;43472;48.980;9.646;2022-07-24T00:10:03;13.25;;;11.50;;
28724;SDS011;43472;48.980;9.646;2022-07-24T00:15:06;14.98;;;11.52;;
28724;SDS011;43472;48.980;9.646;2022-07-24T00:20:08;15.18;;;13.18;;
28724;SDS011;43472;48.980;9.646;2022-07-24T00:25:11;16.30;;;12.52;;
28724;SDS011;43472;48.980;9.646;2022-07-24T00:30:13;16.95;;;14.07;;
28724;SDS011;43472;48.980;9.646;2022-07-24T00:35:15;15.07;;;11.93;;
28724;SDS011;43472;48.980;9.646;2022-07-24T00:40:19;14.55;;;12.40;;
28724;SDS011;43472;48.980;9.646;2022-07-24T00:45:20;14.40;;;11.65;;
28724;SDS011;43472;48.980;9.646;2022-07-24T00:50:26;14.18;;;12.18;;
28724;SDS011;43472;48.980;9.646;2022-07-24T00:55:27;14.93;;;12.55;;
28724;SDS011;43472;48.980;9.646;2022-07-24T01:00:30;18.90;;;12.80;;
28724;SDS011;43472;48.980;9.646;2022-07-24T01:05:31;15.50;;;12.40;;
28724;SDS011;43472;48.980;9.646;2022-07-24T01:10:33;15.52;;;12.65;;
28724;SDS011;43472;48.980;9.646;2022-07-24T01:15:35;14.57;;;12.02;;
28724;SDS011;43472;48.980;9.646;2022-07-24T01:20:37;18.80;;;13.15;;
28724;SDS011;43472;48.980;9.646;2022-07-24T01:25:40;17.70;;;12.25;;
28724;SDS011;43472;48.980;9.646;2022-07-24T01:30:42;15.15;;;11.95;;
28724;SDS011;43472;48.980;9.646;2022-07-24T01:35:45;15.40;;;11.45;;
28724;SDS011;43472;48.980;9.646;2022-07-24T01:40:47;17.73;;;13.63;;
28724;SDS011;43472;48.980;9.646;2022-07-24T01:56:31;20.90;;;12.27;;
28724;SDS011;43472;48.980;9.646;2022-07-24T02:01:43;16.25;;;12.60;;
28724;SDS011;43472;48.980;9.646;2022-07-24T02:06:46;16.05;;;13.23;;
28724;SDS011;43472;48.980;9.646;2022-07-24T02:11:48;15.00;;;12.15;;
28724;SDS011;43472;48.980;9.646;2022-07-24T02:16:50;16.20;;;13.07;;
28724;SDS011;43472;48.980;9.646;2022-07-24T02:21:52;14.82;;;12.25;;
28724;SDS011;43472;48.980;9.646;2022-07-24T02:26:53;15.02;;;12.70;;
28724;SDS011;43472;48.980;9.646;2022-07-24T02:32:02;16.75;;;13.70;;
28724;SDS011;43472;48.980;9.646;2022-07-24T02:37:04;14.80;;;12.82;;
28724;SDS011;43472;48.980;9.646;2022-07-24T02:42:09;16.42;;;12.60;;
28724;SDS011;43472;48.980;9.646;2022-07-24T02:47:13;16.42;;;13.13;;
28724;SDS011;43472;48.980;9.646;2022-07-24T02:52:15;17.67;;;14.07;;
28724;SDS011;43472;48.980;9.646;2022-07-24T02:57:16;20.48;;;14.52;;
28724;SDS011;43472;48.980;9.646;2022-07-24T03:02:18;21.50;;;15.52;;
28724;SDS011;43472;48.980;9.646;2022-07-24T03:07:20;20.30;;;14.85;;
28724;SDS011;43472;48.980;9.646;2022-07-24T03:12:22;17.42;;;14.85;;
28724;SDS011;43472;48.980;9.646;2022-07-24T03:17:24;17.15;;;13.45;;
28724;SDS011;43472;48.980;9.646;2022-07-24T03:22:26;18.42;;;13.43;;
28724;SDS011;43472;48.980;9.646;2022-07-24T03:27:28;16.95;;;14.27;;
28724;SDS011;43472;48.980;9.646;2022-07-24T03:32:30;15.68;;;13.95;;
28724;SDS011;43472;48.980;9.646;2022-07-24T03:37:32;17.15;;;14.48;;
28724;SDS011;43472;48.980;9.646;2022-07-24T03:42:34;16.20;;;14.50;;
28724;SDS011;43472;48.980;9.646;2022-07-24T03:47:36;15.27;;;13.35;;
28724;SDS011;43472;48.980;9.646;2022-07-24T03:52:38;19.63;;;14.32;;
28724;SDS011;43472;48.980;9.646;2022-07-24T03:57:41;14.65;;;13.15;;
28724;SDS011;43472;48.980;9.646;2022-07-24T04:02:43;17.13;;;13.40;;
28724;SDS011;43472;48.980;9.646;2022-07-24T04:07:45;14.25;;;12.80;;
28724;SDS011;43472;48.980;9.646;2022-07-24T04:12:46;18.92;;;14.95;;
28724;SDS011;43472;48.980;9.646;2022-07-24T04:17:49;18.85;;;14.02;;
28724;SDS011;43472;48.980;9.646;2022-07-24T04:22:50;15.88;;;14.23;;
28724;SDS011;43472;48.980;9.646;2022-07-24T04:27:53;17.30;;;13.52;;
28724;SDS011;43472;48.980;9.646;2022-07-24T04:32:54;16.42;;;14.23;;
28724;SDS011;43472;48.980;9.646;2022-07-24T04:37:56;19.77;;;13.80;;
28724;SDS011;43472;48.980;9.646;2022-07-24T04:42:58;18.48;;;14.23;;
28724;SDS011;43472;48.980;9.646;2022-07-24T04:48:00;17.00;;;13.55;;
28724;SDS011;43472;48.980;9.646;2022-07-24T04:53:02;17.98;;;13.73;;
28724;SDS011;43472;48.980;9.646;2022-07-24T04:58:04;17.92;;;13.73;;
28724;SDS011;43472;48.980;9.646;2022-07-24T05:03:06;17.75;;;14.50;;
28724;SDS011;43472;48.980;9.646;2022-07-24T05:08:07;16.85;;;14.70;;
28724;SDS011;43472;48.980;9.646;2022-07-24T05:13:09;15.70;;;13.32;;
28724;SDS011;43472;48.980;9.646;2022-07-24T05:18:11;15.80;;;14.13;;
28724;SDS011;43472;48.980;9.646;2022-07-24T05:23:13;16.98;;;14.43;;
28724;SDS011;43472;48.980;9.646;2022-07-24T05:28:15;18.20;;;15.60;;
28724;SDS011;43472;48.980;9.646;2022-07-24T05:33:17;15.82;;;14.18;;
28724;SDS011;43472;48.980;9.646;2022-07-24T05:38:19;21.55;;;16.48;;
28724;SDS011;43472;48.980;9.646;2022-07-24T05:43:21;20.40;;;15.88;;
28724;SDS011;43472;48.980;9.646;2022-07-24T05:48:23;23.42;;;17.27;;
28724;SDS011;43472;48.980;9.646;2022-07-24T05:53:25;26.80;;;17.17;;
28724;SDS011;43472;48.980;9.646;2022-07-24T05:58:26;21.33;;;17.23;;
28724;SDS011;43472;48.980;9.646;2022-07-24T06:03:28;23.90;;;20.98;;
28724;SDS011;43472;48.980;9.646;2022-07-24T06:08:30;24.92;;;20.52;;
28724;SDS011;43472;48.980;9.646;2022-07-24T06:13:32;32.05;;;24.73;;
28724;SDS011;43472;48.980;9.646;2022-07-24T06:18:34;27.05;;;23.27;;
28724;SDS011;43472;48.980;9.646;2022-07-24T06:23:36;28.58;;;23.20;;
28724;SDS011;43472;48.980;9.646;2022-07-24T06:28:38;33.17;;;25.20;;
28724;SDS011;43472;48.980;9.646;2022-07-24T06:33:40;29.13;;;24.98;;
28724;SDS011;43472;48.980;9.646;2022-07-24T06:38:42;28.08;;;25.00;;
28724;SDS011;43472;48.980;9.646;2022-07-24T06:43:43;24.63;;;20.45;;
28724;SDS011;43472;48.980;9.646;2022-07-24T06:48:45;25.58;;;19.33;;
28724;SDS011;43472;48.980;9.646;2022-07-24T06:53:47;25.75;;;18.40;;
28724;SDS011;43472;48.980;9.646;2022-07-24T06:58:49;29.27;;;20.05;;
28724;SDS011;43472;48.980;9.646;2022-07-24T07:03:52;25.70;;;18.00;;
28724;SDS011;43472;48.980;9.646;2022-07-24T07:08:54;20.48;;;16.60;;
28724;SDS011;43472;48.980;9.646;2022-07-24T07:13:56;18.20;;;15.68;;
28724;SDS011;43472;48.980;9.646;2022-07-24T07:18:58;18.95;;;14.63;;
28724;SDS011;43472;48.980;9.646;2022-07-24T07:24:00;11.98;;;10.77;;
28724;SDS011;43472;48.980;9.646;2022-07-24T07:29:02;18.88;;;11.65;;
28724;SDS011;43472;48.980;9.646;2022-07-24T07:34:04;14.82;;;13.23;;
28724;SDS011;43472;48.980;9.646;2022-07-24T07:39:06;13.77;;;11.10;;
28724;SDS011;43472;48.980;9.646;2022-07-24T07:44:08;13.10;;;10.48;;
28724;SDS011;43472;48.980;9.646;2022-07-24T07:49:10;13.95;;;11.45;;
28724;SDS011;43472;48.980;9.646;2022-07-24T07:54:13;13.65;;;10.88;;
28724;SDS011;43472;48.980;9.646;2022-07-24T07:59:15;13.25;;;9.38;;
28724;SDS011;43472;48.980;9.646;2022-07-24T08:04:17;12.45;;;9.77;;
28724;SDS011;43472;48.980;9.646;2022-07-24T08:09:19;11.40;;;9.95;;
28724;SDS011;43472;48.980;9.646;2022-07-24T08:14:22;11.20;;;9.15;;
28724;SDS011;43472;48.980;9.646;2022-07-24T08:19:23;11.70;;;8.60;;
28724;SDS011;43472;48.980;9.646;2022-07-24T08:24:25;11.25;;;7.72;;
28724;SDS011;43472;48.980;9.646;2022-07-24T08:29:27;15.15;;;9.45;;
28724;SDS011;43472;48.980;9.646;2022-07-24T08:34:32;9.68;;;8.68;;
28724;SDS011;43472;48.980;9.646;2022-07-24T08:39:37;12.43;;;8.20;;
28724;SDS011;43472;48.980;9.646;2022-07-24T08:44:39;8.25;;;7.30;;
28724;SDS011;43472;48.980;9.646;2022-07-24T08:49:41;8.63;;;6.90;;
28724;SDS011;43472;48.980;9.646;2022-07-24T08:54:47;12.68;;;8.45;;
28724;SDS011;43472;48.980;9.646;2022-07-24T08:59:49;8.13;;;6.75;;
28724;SDS011;43472;48.980;9.646;2022-07-24T09:04:57;9.35;;;7.18;;
28724;SDS011;43472;48.980;9.646;2022-07-24T09:10:02;9.20;;;6.88;;
28724;SDS011;43472;48.980;9.646;2022-07-24T09:15:24;9.15;;;7.22;;
28724;SDS011;43472;48.980;9.646;2022-07-24T09:20:28;8.73;;;7.05;;
28724;SDS011;43472;48.980;9.646;2022-07-24T09:25:31;9.52;;;7.10;;
28724;SDS011;43472;48.980;9.646;2022-07-24T09:30:36;9.73;;;7.38;;
28724;SDS011;43472;48.980;9.646;2022-07-24T09:35:52;8.30;;;6.95;;
28724;SDS011;43472;48.980;9.646;2022-07-24T09:40:58;7.88;;;6.53;;
28724;SDS011;43472;48.980;9.646;2022-07-24T09:46:01;16.35;;;7.30;;
28724;SDS011;43472;48.980;9.646;2022-07-24T09:56:12;10.82;;;6.50;;
28724;SDS011;43472;48.980;9.646;2022-07-24T10:01:19;8.40;;;6.40;;
28724;SDS011;43472;48.980;9.646;2022-07-24T10:06:26;9.15;;;6.55;;
28724;SDS011;43472;48.980;9.646;2022-07-24T10:11:28;8.02;;;6.22;;
28724;SDS011;43472;48.980;9.646;2022-07-24T10:16:35;8.65;;;6.70;;
28724;SDS011;43472;48.980;9.646;2022-07-24T10:22:06;9.15;;;5.90;;
28724;SDS011;43472;48.980;9.646;2022-07-24T10:27:33;9.23;;;6.18;;
28724;SDS011;43472;48.980;9.646;2022-07-24T10:32:38;11.27;;;5.95;;
28724;SDS011;43472;48.980;9.646;2022-07-24T10:37:48;7.75;;;6.43;;
28724;SDS011;43472;48.980;9.646;2022-07-24T10:53:21;10.82;;;6.60;;
28724;SDS011;43472;48.980;9.646;2022-07-24T10:58:23;8.48;;;5.78;;
28724;SDS011;43472;48.980;9.646;2022-07-24T11:03:26;8.18;;;6.90;;
28724;SDS011;43472;48.980;9.646;2022-07-24T11:08:32;12.18;;;7.25;;
28724;SDS011;43472;48.980;9.646;2022-07-24T11:13:53;9.88;;;7.97;;
28724;SDS011;43472;48.980;9.646;2022-07-24T11:29:18;7.97;;;6.35;;
28724;SDS011;43472;48.980;9.646;2022-07-24T11:34:24;17.33;;;7.22;;
28724;SDS011;43472;48.980;9.646;2022-07-24T11:39:32;10.68;;;6.88;;
28724;SDS011;43472;48.980;9.646;2022-07-24T11:49:47;11.63;;;7.05;;
28724;SDS011;43472;48.980;9.646;2022-07-24T11:54:54;8.15;;;6.00;;
28724;SDS011;43472;48.980;9.646;2022-07-24T11:59:59;9.25;;;6.75;;
28724;SDS011;43472;48.980;9.646;2022-07-24T12:05:01;8.18;;;6.70;;
28724;SDS011;43472;48.980;9.646;2022-07-24T12:10:04;11.52;;;7.00;;
28724;SDS011;43472;48.980;9.646;2022-07-24T12:15:10;6.80;;;6.10;;
28724;SDS011;43472;48.980;9.646;2022-07-24T12:20:22;7.53;;;6.45;;
28724;SDS011;43472;48.980;9.646;2022-07-24T12:25:25;7.63;;;6.32;;
28724;SDS011;43472;48.980;9.646;2022-07-24T12:30:29;7.18;;;6.20;;
28724;SDS011;43472;48.980;9.646;2022-07-24T12:35:33;9.15;;;5.88;;
28724;SDS011;43472;48.980;9.646;2022-07-24T12:41:03;8.23;;;5.67;;
28724;SDS011;43472;48.980;9.646;2022-07-24T12:46:08;6.97;;;5.75;;
28724;SDS011;43472;48.980;9.646;2022-07-24T12:51:11;6.90;;;6.15;;
28724;SDS011;43472;48.980;9.646;2022-07-24T12:56:15;6.15;;;5.55;;
28724;SDS011;43472;48.980;9.646;2022-07-24T13:01:18;13.18;;;6.40;;
28724;SDS011;43472;48.980;9.646;2022-07-24T13:12:00;8.88;;;7.15;;
28724;SDS011;43472;48.980;9.646;2022-07-24T13:17:03;9.85;;;5.50;;
28724;SDS011;43472;48.980;9.646;2022-07-24T13:22:07;10.93;;;6.32;;
28724;SDS011;43472;48.980;9.646;2022-07-24T13:27:10;9.98;;;6.78;;
28724;SDS011;43472;48.980;9.646;2022-07-24T13:32:17;8.40;;;6.53;;
28724;SDS011;43472;48.980;9.646;2022-07-24T13:37:23;7.20;;;6.45;;
28724;SDS011;43472;48.980;9.646;2022-07-24T13:42:26;7.22;;;6.30;;
28724;SDS011;43472;48.980;9.646;2022-07-24T13:47:28;7.43;;;6.45;;
28724;SDS011;43472;48.980;9.646;2022-07-24T13:52:31;6.97;;;6.15;;
28724;SDS011;43472;48.980;9.646;2022-07-24T13:57:32;7.97;;;6.20;;
28724;SDS011;43472;48.980;9.646;2022-07-24T14:02:35;8.65;;;6.50;;
28724;SDS011;43472;48.980;9.646;2022-07-24T14:07:37;6.38;;;5.78;;
28724;SDS011;43472;48.980;9.646;2022-07-24T14:12:38;7.75;;;6.05;;
28724;SDS011;43472;48.980;9.646;2022-07-24T14:17:41;6.55;;;5.95;;
28724;SDS011;43472;48.980;9.646;2022-07-24T14:22:44;6.32;;;5.75;;
28724;SDS011;43472;48.980;9.646;2022-07-24T14:27:45;7.15;;;6.45;;
28724;SDS011;43472;48.980;9.646;2022-07-24T14:32:47;8.18;;;6.45;;
28724;SDS011;43472;48.980;9.646;2022-07-24T14:37:49;6.95;;;6.30;;
28724;SDS011;43472;48.980;9.646;2022-07-24T14:42:51;8.52;;;7.25;;
28724;SDS011;43472;48.980;9.646;2022-07-24T14:47:53;10.07;;;6.40;;
28724;SDS011;43472;48.980;9.646;2022-07-24T14:52:55;10.02;;;6.40;;
28724;SDS011;43472;48.980;9.646;2022-07-24T14:57:57;12.98;;;6.95;;
28724;SDS011;43472;48.980;9.646;2022-07-24T15:02:59;9.27;;;6.15;;
28724;SDS011;43472;48.980;9.646;2022-07-24T15:08:01;8.77;;;6.45;;
28724;SDS011;43472;48.980;9.646;2022-07-24T15:13:03;8.02;;;6.32;;
28724;SDS011;43472;48.980;9.646;2022-07-24T15:18:04;7.65;;;6.50;;
28724;SDS011;43472;48.980;9.646;2022-07-24T15:23:06;7.07;;;6.18;;
28724;SDS011;43472;48.980;9.646;2022-07-24T15:28:08;7.85;;;6.00;;
28724;SDS011;43472;48.980;9.646;2022-07-24T15:33:10;7.20;;;6.45;;
28724;SDS011;43472;48.980;9.646;2022-07-24T15:38:14;10.80;;;6.47;;
28724;SDS011;43472;48.980;9.646;2022-07-24T15:43:18;6.65;;;5.90;;
28724;SDS011;43472;48.980;9.646;2022-07-24T15:48:19;10.55;;;6.45;;
28724;SDS011;43472;48.980;9.646;2022-07-24T15:53:21;7.70;;;6.72;;
28724;SDS011;43472;48.980;9.646;2022-07-24T15:58:23;6.97;;;6.25;;
28724;SDS011;43472;48.980;9.646;2022-07-24T16:03:25;8.38;;;6.47;;
28724;SDS011;43472;48.980;9.646;2022-07-24T16:08:27;7.50;;;6.80;;
28724;SDS011;43472;48.980;9.646;2022-07-24T16:13:29;7.32;;;6.63;;
28724;SDS011;43472;48.980;9.646;2022-07-24T16:18:31;7.82;;;7.03;;
28724;SDS011;43472;48.980;9.646;2022-07-24T16:23:35;10.38;;;7.32;;
28724;SDS011;43472;48.980;9.646;2022-07-24T16:28:37;8.13;;;6.63;;
28724;SDS011;43472;48.980;9.646;2022-07-24T16:33:39;8.32;;;6.72;;
28724;SDS011;43472;48.980;9.646;2022-07-24T16:38:43;7.68;;;6.60;;
28724;SDS011;43472;48.980;9.646;2022-07-24T16:43:45;11.43;;;6.82;;
28724;SDS011;43472;48.980;9.646;2022-07-24T16:48:47;8.43;;;7.13;;
28724;SDS011;43472;48.980;9.646;2022-07-24T16:53:49;13.75;;;7.60;;
28724;SDS011;43472;48.980;9.646;2022-07-24T16:58:51;9.57;;;7.22;;
28724;SDS011;43472;48.980;9.646;2022-07-24T17:03:53;8.13;;;7.22;;
28724;SDS011;43472;48.980;9.646;2022-07-24T17:08:55;7.95;;;7.13;;
28724;SDS011;43472;48.980;9.646;2022-07-24T17:13:58;11.98;;;7.45;;
28724;SDS011;43472;48.980;9.646;2022-07-24T17:19:00;8.80;;;6.47;;
28724;SDS011;43472;48.980;9.646;2022-07-24T17:24:02;7.50;;;6.35;;
28724;SDS011;43472;48.980;9.646;2022-07-24T17:29:04;7.63;;;6.82;;
28724;SDS011;43472;48.980;9.646;2022-07-24T17:34:06;8.07;;;7.28;;
28724;SDS011;43472;48.980;9.646;2022-07-24T17:39:09;7.97;;;7.13;;
28724;SDS011;43472;48.980;9.646;2022-07-24T17:44:10;8.02;;;7.22;;
28724;SDS011;43472;48.980;9.646;2022-07-24T17:49:13;10.43;;;7.45;;
28724;SDS011;43472;48.980;9.646;2022-07-24T17:54:20;8.63;;;7.72;;
28724;SDS011;43472;48.980;9.646;2022-07-24T17:59:22;9.63;;;7.03;;
28724;SDS011;43472;48.980;9.646;2022-07-24T18:04:24;7.20;;;6.50;;
28724;SDS011;43472;48.980;9.646;2022-07-24T18:09:26;9.38;;;7.10;;
28724;SDS011;43472;48.980;9.646;2022-07-24T18:14:28;7.60;;;6.90;;
28724;SDS011;43472;48.980;9.646;2022-07-24T18:19:30;9.52;;;6.97;;
28724;SDS011;43472;48.980;9.646;2022-07-24T18:24:32;7.68;;;6.88;;
28724;SDS011;43472;48.980;9.646;2022-07-24T18:29:34;9.93;;;6.97;;
28724;SDS011;43472;48.980;9.646;2022-07-24T18:34:36;7.45;;;6.75;;
28724;SDS011;43472;48.980;9.646;2022-07-24T18:39:37;7.38;;;6.63;;
28724;SDS011;43472;48.980;9.646;2022-07-24T18:44:39;13.65;;;7.00;;
28724;SDS011;43472;48.980;9.646;2022-07-24T18:49:41;22.98;;;7.43;;
28724;SDS011;43472;48.980;9.646;2022-07-24T18:54:43;12.20;;;7.50;;
28724;SDS011;43472;48.980;9.646;2022-07-24T18:59:45;10.48;;;7.40;;
28724;SDS011;43472;48.980;9.646;2022-07-24T19:04:46;9.20;;;6.50;;
28724;SDS011;43472;48.980;9.646;2022-07-24T19:09:48;8.75;;;6.88;;
28724;SDS011;43472;48.980;9.646;2022-07-24T19:14:50;16.90;;;7.40;;
28724;SDS011;43472;48.980;9.646;2022-07-24T19:19:52;14.68;;;6.43;;
28724;SDS011;43472;48.980;9.646;2022-07-24T19:24:54;10.13;;;7.60;;
28724;SDS011;43472;48.980;9.646;2022-07-24T19:30:03;9.70;;;7.82;;
28724;SDS011;43472;48.980;9.646;2022-07-24T19:35:06;12.13;;;9.15;;
28724;SDS011;43472;48.980;9.646;2022-07-24T19:40:08;9.20;;;7.97;;
28724;SDS011;43472;48.980;9.646;2022-07-24T19:45:10;12.90;;;9.63;;
28724;SDS011;43472;48.980;9.646;2022-07-24T19:50:12;15.60;;;10.35;;
28724;SDS011;43472;48.980;9.646;2022-07-24T19:55:16;14.65;;;9.45;;
28724;SDS011;43472;48.980;9.646;2022-07-24T20:00:17;33.65;;;23.33;;
28724;SDS011;43472;48.980;9.646;2022-07-24T20:05:19;18.60;;;12.30;;
28724;SDS011;43472;48.980;9.646;2022-07-24T20:10:21;22.52;;;14.80;;
28724;SDS011;43472;48.980;9.646;2022-07-24T20:15:23;18.15;;;12.02;;
28724;SDS011;43472;48.980;9.646;2022-07-24T20:20:25;15.18;;;11.98;;
28724;SDS011;43472;48.980;9.646;2022-07-24T20:25:27;10.88;;;9.73;;
28724;SDS011;43472;48.980;9.646;2022-07-24T20:30:28;11.77;;;9.77;;
28724;SDS011;43472;48.980;9.646;2022-07-24T20:35:31;12.60;;;9.32;;
28724;SDS011;43472;48.980;9.646;2022-07-24T20:40:32;11.35;;;9.20;;
28724;SDS011;43472;48.980;9.646;2022-07-24T20:45:35;14.32;;;10.57;;
28724;SDS011;43472;48.980;9.646;2022-07-24T20:50:37;11.65;;;9.98;;
28724;SDS011;43472;48.980;9.646;2022-07-24T20:55:39;11.27;;;9.43;;
28724;SDS011;43472;48.980;9.646;2022-07-24T21:00:41;10.85;;;9.57;;
28724;SDS011;43472;48.980;9.646;2022-07-24T21:05:43;15.13;;;10.07;;
28724;SDS011;43472;48.980;9.646;2022-07-24T21:10:45;12.63;;;10.30;;
28724;SDS011;43472;48.980;9.646;2022-07-24T21:15:47;10.63;;;9.25;;
28724;SDS011;43472;48.980;9.646;2022-07-24T21:20:49;10.65;;;9.48;;
28724;SDS011;43472;48.980;9.646;2022-07-24T21:25:52;18.40;;;13.68;;
28724;SDS011;43472;48.980;9.646;2022-07-24T21:30:53;12.05;;;10.75;;
28724;SDS011;43472;48.980;9.646;2022-07-24T21:35:55;13.68;;;12.00;;
28724;SDS011;43472;48.980;9.646;2022-07-24T21:40:57;16.85;;;12.52;;
28724;SDS011;43472;48.980;9.646;2022-07-24T21:45:59;16.40;;;11.80;;
28724;SDS011;43472;48.980;9.646;2022-07-24T21:51:06;16.98;;;12.93;;
28724;SDS011;43472;48.980;9.646;2022-07-24T21:56:08;21.45;;;14.32;;
28724;SDS011;43472;48.980;9.646;2022-07-24T22:01:11;19.20;;;14.00;;
28724;SDS011;43472;48.980;9.646;2022-07-24T22:06:13;17.90;;;13.07;;
28724;SDS011;43472;48.980;9.646;2022-07-24T22:11:15;15.77;;;12.10;;
28724;SDS011;43472;48.980;9.646;2022-07-24T22:16:17;18.38;;;12.52;;
28724;SDS011;43472;48.980;9.646;2022-07-24T22:21:19;13.88;;;11.57;;
28724;SDS011;43472;48.980;9.646;2022-07-24T22:26:20;14.45;;;11.38;;
28724;SDS011;43472;48.980;9.646;2022-07-24T22:31:22;16.73;;;11.57;;
28724;SDS011;43472;48.980;9.646;2022-07-24T22:36:26;14.32;;;11.07;;
28724;SDS011;43472;48.980;9.646;2022-07-24T22:41:32;12.48;;;11.15;;
28724;SDS011;43472;48.980;9.646;2022-07-24T22:46:34;13.73;;;11.93;;
28724;SDS011;43472;48.980;9.646;2022-07-24T22:51:36;13.38;;;11.70;;
28724;SDS011;43472;48.980;9.646;2022-07-24T22:56:42;14.93;;;11.80;;
28724;SDS011;43472;48.980;9.646;2022-07-24T23:01:44;13.23;;;11.90;;
28724;SDS011;43472;48.980;9.646;2022-07-24T23:06:46;12.85;;;11.13;;
28724;SDS011;43472;48.980;9.646;2022-07-24T23:11:48;14.88;;;11.65;;
28724;SDS011;43472;48.980;9.646;2022-07-24T23:16:50;16.60;;;13.40;;
28724;SDS011;43472;48.980;9.646;2022-07-24T23:21:52;14.43;;;12.07;;
28724;SDS011;43472;48.980;9.646;2022-07-24T23:26:54;13.48;;;11.70;;
28724;SDS011;43472;48.980;9.646;2022-07-24T23:31:55;14.80;;;11.98;;
28724;SDS011;43472;48.980;9.646;2022-07-24T23:36:57;12.93;;;11.25;;
28724;SDS011;43472;48.980;9.646;2022-07-24T23:41:59;16.13;;;11.30;;
28724;SDS011;43472;48.980;9.646;2022-07-24T23:47:01;16.17;;;11.75;;
28724;SDS011;43472;48.980;9.646;2022-07-24T23:52:03;17.05;;;12.32;;
28724;SDS011;43472;48.980;9.646;2022-07-24T23:57:05;14.85;;;12.95;;
